sensor_id;sensor_type;location;lat;lon;timestamp;temperature;humidity
10812;DHT22;5458;51.496;7.334;2023-01-25T00:02:00;3.70;99.90
10812;DHT22;5458;51.496;7.334;2023-01-25T00:04:26;3.50;99.90
10812;DHT22;5458;51.496;7.334;2023-01-25T00:06:51;3.50;99.90
10812;DHT22;5458;51.496;7.334;2023-01-25T00:09:18;3.50;99.90
10812;DHT22;5458;51.496;7.334;2023-01-25T00:11:44;3.60;99.90
10812;DHT22;5458;51.496;7.334;2023-01-25T00:14:11;3.60;99.90
10812;DHT22;5458;51.496;7.334;2023-01-25T00:16:37;3.60;99.90
10812;DHT22;5458;51.496;7.334;2023-01-25T00:19:03;3.60;99.90
10812;DHT22;5458;51.496;7.334;2023-01-25T00:21:29;3.60;99.90
10812;DHT22;5458;51.496;7.334;2023-01-25T00:23:55;3.70;99.90
10812;DHT22;5458;51.496;7.334;2023-01-25T00:26:20;3.70;99.90
10812;DHT22;5458;51.496;7.334;2023-01-25T00:28:50;3.70;99.90
10812;DHT22;5458;51.496;7.334;2023-01-25T00:34:47;3.60;99.90
10812;DHT22;5458;51.496;7.334;2023-01-25T00:39:49;3.40;99.90
10812;DHT22;5458;51.496;7.334;2023-01-25T00:42:16;3.20;99.90
10812;DHT22;5458;51.496;7.334;2023-01-25T00:44:42;3.20;99.90
10812;DHT22;5458;51.496;7.334;2023-01-25T00:47:09;3.20;99.90
10812;DHT22;5458;51.496;7.334;2023-01-25T00:49:36;3.20;99.90
10812;DHT22;5458;51.496;7.334;2023-01-25T00:52:02;3.20;99.90
10812;DHT22;5458;51.496;7.334;2023-01-25T00:54:28;3.30;99.90
10812;DHT22;5458;51.496;7.334;2023-01-25T00:56:53;3.40;99.90
10812;DHT22;5458;51.496;7.334;2023-01-25T00:59:21;3.40;99.90
10812;DHT22;5458;51.496;7.334;2023-01-25T01:01:48;3.50;99.90
10812;DHT22;5458;51.496;7.334;2023-01-25T01:04:14;3.50;99.90
10812;DHT22;5458;51.496;7.334;2023-01-25T01:06:40;3.50;99.90
10812;DHT22;5458;51.496;7.334;2023-01-25T01:09:11;3.50;99.90
10812;DHT22;5458;51.496;7.334;2023-01-25T01:11:37;3.50;99.90
10812;DHT22;5458;51.496;7.334;2023-01-25T01:17:24;3.60;99.90
10812;DHT22;5458;51.496;7.334;2023-01-25T01:19:50;3.50;99.90
10812;DHT22;5458;51.496;7.334;2023-01-25T01:22:15;3.50;99.90
10812;DHT22;5458;51.496;7.334;2023-01-25T01:24:41;3.50;99.90
10812;DHT22;5458;51.496;7.334;2023-01-25T01:27:07;3.60;99.90
10812;DHT22;5458;51.496;7.334;2023-01-25T01:29:32;3.60;99.90
10812;DHT22;5458;51.496;7.334;2023-01-25T01:31:58;3.50;99.90
10812;DHT22;5458;51.496;7.334;2023-01-25T01:34:24;3.40;99.90
10812;DHT22;5458;51.496;7.334;2023-01-25T01:36:50;3.30;99.90
10812;DHT22;5458;51.496;7.334;2023-01-25T01:39:15;3.30;99.90
10812;DHT22;5458;51.496;7.334;2023-01-25T01:41:41;3.40;99.90
10812;DHT22;5458;51.496;7.334;2023-01-25T01:44:14;3.40;99.90
10812;DHT22;5458;51.496;7.334;2023-01-25T01:46:50;3.40;99.90
10812;DHT22;5458;51.496;7.334;2023-01-25T01:49:23;3.50;99.90
10812;DHT22;5458;51.496;7.334;2023-01-25T01:52:00;3.50;99.90
10812;DHT22;5458;51.496;7.334;2023-01-25T01:54:36;3.40;99.90
10812;DHT22;5458;51.496;7.334;2023-01-25T02:00:18;3.40;99.90
10812;DHT22;5458;51.496;7.334;2023-01-25T02:02:18;3.40;99.90
10812;DHT22;5458;51.496;7.334;2023-01-25T02:04:46;3.40;99.90
10812;DHT22;5458;51.496;7.334;2023-01-25T02:07:23;3.50;99.90
10812;DHT22;5458;51.496;7.334;2023-01-25T02:09:50;3.50;99.90
10812;DHT22;5458;51.496;7.334;2023-01-25T02:12:17;3.50;99.90
10812;DHT22;5458;51.496;7.334;2023-01-25T02:14:47;3.50;99.90
10812;DHT22;5458;51.496;7.334;2023-01-25T02:17:13;3.50;99.90
10812;DHT22;5458;51.496;7.334;2023-01-25T02:19:53;3.40;99.90
10812;DHT22;5458;51.496;7.334;2023-01-25T02:22:25;3.40;99.90
10812;DHT22;5458;51.496;7.334;2023-01-25T02:25:11;3.40;99.90
10812;DHT22;5458;51.496;7.334;2023-01-25T02:27:40;3.40;99.90
10812;DHT22;5458;51.496;7.334;2023-01-25T02:30:08;3.40;99.90
10812;DHT22;5458;51.496;7.334;2023-01-25T02:32:34;3.40;99.90
10812;DHT22;5458;51.496;7.334;2023-01-25T02:34:59;3.40;99.90
10812;DHT22;5458;51.496;7.334;2023-01-25T02:37:25;3.50;99.90
10812;DHT22;5458;51.496;7.334;2023-01-25T02:39:51;3.40;99.90
10812;DHT22;5458;51.496;7.334;2023-01-25T02:42:17;3.40;99.90
10812;DHT22;5458;51.496;7.334;2023-01-25T02:44:43;3.40;99.90
10812;DHT22;5458;51.496;7.334;2023-01-25T02:47:08;3.40;99.90
10812;DHT22;5458;51.496;7.334;2023-01-25T02:49:35;3.40;99.90
10812;DHT22;5458;51.496;7.334;2023-01-25T02:52:02;3.30;99.90
10812;DHT22;5458;51.496;7.334;2023-01-25T02:54:28;3.30;99.90
10812;DHT22;5458;51.496;7.334;2023-01-25T02:56:54;3.30;99.90
10812;DHT22;5458;51.496;7.334;2023-01-25T02:59:19;3.30;99.90
10812;DHT22;5458;51.496;7.334;2023-01-25T03:01:45;3.30;99.90
10812;DHT22;5458;51.496;7.334;2023-01-25T03:04:11;3.30;99.90
10812;DHT22;5458;51.496;7.334;2023-01-25T03:06:38;3.30;99.90
10812;DHT22;5458;51.496;7.334;2023-01-25T03:09:06;3.30;99.90
10812;DHT22;5458;51.496;7.334;2023-01-25T03:11:32;3.20;99.90
10812;DHT22;5458;51.496;7.334;2023-01-25T03:13:57;3.20;99.90
10812;DHT22;5458;51.496;7.334;2023-01-25T03:16:23;3.20;99.90
10812;DHT22;5458;51.496;7.334;2023-01-25T03:18:52;3.20;99.90
10812;DHT22;5458;51.496;7.334;2023-01-25T03:21:19;3.20;99.90
10812;DHT22;5458;51.496;7.334;2023-01-25T03:23:46;3.30;99.90
10812;DHT22;5458;51.496;7.334;2023-01-25T03:26:13;3.30;99.90
10812;DHT22;5458;51.496;7.334;2023-01-25T03:28:40;3.30;99.90
10812;DHT22;5458;51.496;7.334;2023-01-25T03:31:09;3.30;99.90
10812;DHT22;5458;51.496;7.334;2023-01-25T03:33:35;3.30;99.90
10812;DHT22;5458;51.496;7.334;2023-01-25T03:36:01;3.30;99.90
10812;DHT22;5458;51.496;7.334;2023-01-25T03:38:27;3.30;99.90
10812;DHT22;5458;51.496;7.334;2023-01-25T03:40:53;3.20;99.90
10812;DHT22;5458;51.496;7.334;2023-01-25T03:43:19;3.20;99.90
10812;DHT22;5458;51.496;7.334;2023-01-25T03:45:45;3.10;99.90
10812;DHT22;5458;51.496;7.334;2023-01-25T03:48:11;3.20;99.90
10812;DHT22;5458;51.496;7.334;2023-01-25T03:50:37;3.10;99.90
10812;DHT22;5458;51.496;7.334;2023-01-25T03:53:02;3.10;99.90
10812;DHT22;5458;51.496;7.334;2023-01-25T03:55:34;3.10;99.90
10812;DHT22;5458;51.496;7.334;2023-01-25T03:58:00;3.00;99.90
10812;DHT22;5458;51.496;7.334;2023-01-25T04:00:26;2.90;99.90
10812;DHT22;5458;51.496;7.334;2023-01-25T04:02:51;2.90;99.90
10812;DHT22;5458;51.496;7.334;2023-01-25T04:05:17;2.90;99.90
10812;DHT22;5458;51.496;7.334;2023-01-25T04:07:43;2.80;99.90
10812;DHT22;5458;51.496;7.334;2023-01-25T04:10:09;2.80;99.90
10812;DHT22;5458;51.496;7.334;2023-01-25T04:12:35;2.70;99.90
10812;DHT22;5458;51.496;7.334;2023-01-25T04:15:00;2.80;99.90
10812;DHT22;5458;51.496;7.334;2023-01-25T04:17:26;2.80;99.90
10812;DHT22;5458;51.496;7.334;2023-01-25T04:19:51;2.90;99.90
10812;DHT22;5458;51.496;7.334;2023-01-25T04:22:17;2.90;99.90
10812;DHT22;5458;51.496;7.334;2023-01-25T04:24:43;2.90;99.90
10812;DHT22;5458;51.496;7.334;2023-01-25T04:27:09;2.80;99.90
10812;DHT22;5458;51.496;7.334;2023-01-25T04:29:35;2.80;99.90
10812;DHT22;5458;51.496;7.334;2023-01-25T04:32:01;2.80;99.90
10812;DHT22;5458;51.496;7.334;2023-01-25T04:34:26;2.90;99.90
10812;DHT22;5458;51.496;7.334;2023-01-25T04:36:52;2.90;99.90
10812;DHT22;5458;51.496;7.334;2023-01-25T04:39:18;2.90;99.90
10812;DHT22;5458;51.496;7.334;2023-01-25T04:41:44;3.00;99.90
10812;DHT22;5458;51.496;7.334;2023-01-25T04:44:10;3.10;99.90
10812;DHT22;5458;51.496;7.334;2023-01-25T04:46:35;3.10;99.90
10812;DHT22;5458;51.496;7.334;2023-01-25T04:49:01;3.10;99.90
10812;DHT22;5458;51.496;7.334;2023-01-25T04:51:27;3.10;99.90
10812;DHT22;5458;51.496;7.334;2023-01-25T04:53:52;3.10;99.90
10812;DHT22;5458;51.496;7.334;2023-01-25T04:56:18;3.10;99.90
10812;DHT22;5458;51.496;7.334;2023-01-25T04:58:43;3.00;99.90
10812;DHT22;5458;51.496;7.334;2023-01-25T05:01:09;3.00;99.90
10812;DHT22;5458;51.496;7.334;2023-01-25T05:03:35;3.00;99.90
10812;DHT22;5458;51.496;7.334;2023-01-25T05:06:00;2.90;99.90
10812;DHT22;5458;51.496;7.334;2023-01-25T05:08:26;2.90;99.90
10812;DHT22;5458;51.496;7.334;2023-01-25T05:10:52;2.90;99.90
10812;DHT22;5458;51.496;7.334;2023-01-25T05:13:17;2.90;99.90
10812;DHT22;5458;51.496;7.334;2023-01-25T05:15:43;2.90;99.90
10812;DHT22;5458;51.496;7.334;2023-01-25T05:18:09;2.90;99.90
10812;DHT22;5458;51.496;7.334;2023-01-25T05:20:35;2.90;99.90
10812;DHT22;5458;51.496;7.334;2023-01-25T05:23:00;2.90;99.90
10812;DHT22;5458;51.496;7.334;2023-01-25T05:25:26;3.00;99.90
10812;DHT22;5458;51.496;7.334;2023-01-25T05:28:10;3.00;99.90
10812;DHT22;5458;51.496;7.334;2023-01-25T05:30:36;3.00;99.90
10812;DHT22;5458;51.496;7.334;2023-01-25T05:33:01;2.90;99.90
10812;DHT22;5458;51.496;7.334;2023-01-25T05:35:27;2.90;99.90
10812;DHT22;5458;51.496;7.334;2023-01-25T05:37:57;2.90;99.90
10812;DHT22;5458;51.496;7.334;2023-01-25T05:40:23;2.90;99.90
10812;DHT22;5458;51.496;7.334;2023-01-25T05:42:55;3.00;99.90
10812;DHT22;5458;51.496;7.334;2023-01-25T05:45:21;3.00;99.90
10812;DHT22;5458;51.496;7.334;2023-01-25T05:47:52;3.00;99.90
10812;DHT22;5458;51.496;7.334;2023-01-25T05:50:17;2.90;99.90
10812;DHT22;5458;51.496;7.334;2023-01-25T05:52:45;3.00;99.90
10812;DHT22;5458;51.496;7.334;2023-01-25T05:55:10;2.90;99.90
10812;DHT22;5458;51.496;7.334;2023-01-25T05:57:36;2.90;99.90
10812;DHT22;5458;51.496;7.334;2023-01-25T06:00:04;2.90;99.90
10812;DHT22;5458;51.496;7.334;2023-01-25T06:02:30;3.00;99.90
10812;DHT22;5458;51.496;7.334;2023-01-25T06:04:56;3.00;99.90
10812;DHT22;5458;51.496;7.334;2023-01-25T06:07:22;3.00;99.90
10812;DHT22;5458;51.496;7.334;2023-01-25T06:09:48;3.00;99.90
10812;DHT22;5458;51.496;7.334;2023-01-25T06:12:13;3.10;99.90
10812;DHT22;5458;51.496;7.334;2023-01-25T06:14:40;3.10;99.90
10812;DHT22;5458;51.496;7.334;2023-01-25T06:17:06;3.10;99.90
10812;DHT22;5458;51.496;7.334;2023-01-25T06:19:32;3.00;99.90
10812;DHT22;5458;51.496;7.334;2023-01-25T06:21:57;3.00;99.90
10812;DHT22;5458;51.496;7.334;2023-01-25T06:24:23;2.90;99.90
10812;DHT22;5458;51.496;7.334;2023-01-25T06:26:48;2.90;99.90
10812;DHT22;5458;51.496;7.334;2023-01-25T06:29:14;2.90;99.90
10812;DHT22;5458;51.496;7.334;2023-01-25T06:31:40;2.90;99.90
10812;DHT22;5458;51.496;7.334;2023-01-25T06:34:05;2.90;99.90
10812;DHT22;5458;51.496;7.334;2023-01-25T06:36:33;3.00;99.90
10812;DHT22;5458;51.496;7.334;2023-01-25T06:38:58;3.00;99.90
10812;DHT22;5458;51.496;7.334;2023-01-25T06:41:24;3.00;99.90
10812;DHT22;5458;51.496;7.334;2023-01-25T06:43:50;3.00;99.90
10812;DHT22;5458;51.496;7.334;2023-01-25T06:46:16;3.00;99.90
10812;DHT22;5458;51.496;7.334;2023-01-25T06:48:42;2.90;99.90
10812;DHT22;5458;51.496;7.334;2023-01-25T06:51:13;2.90;99.90
10812;DHT22;5458;51.496;7.334;2023-01-25T06:53:43;2.90;99.90
10812;DHT22;5458;51.496;7.334;2023-01-25T06:56:19;3.00;99.90
10812;DHT22;5458;51.496;7.334;2023-01-25T06:58:46;3.00;99.90
10812;DHT22;5458;51.496;7.334;2023-01-25T07:01:16;3.10;99.90
10812;DHT22;5458;51.496;7.334;2023-01-25T07:03:51;3.00;99.90
10812;DHT22;5458;51.496;7.334;2023-01-25T07:06:18;2.90;99.90
10812;DHT22;5458;51.496;7.334;2023-01-25T07:08:43;2.90;99.90
10812;DHT22;5458;51.496;7.334;2023-01-25T07:11:11;2.90;99.90
10812;DHT22;5458;51.496;7.334;2023-01-25T07:13:42;3.00;99.90
10812;DHT22;5458;51.496;7.334;2023-01-25T07:16:13;3.00;99.90
10812;DHT22;5458;51.496;7.334;2023-01-25T07:18:39;3.00;99.90
10812;DHT22;5458;51.496;7.334;2023-01-25T07:21:07;3.10;99.90
10812;DHT22;5458;51.496;7.334;2023-01-25T07:23:33;3.10;99.90
10812;DHT22;5458;51.496;7.334;2023-01-25T07:25:59;3.10;99.90
10812;DHT22;5458;51.496;7.334;2023-01-25T07:28:25;3.00;99.90
10812;DHT22;5458;51.496;7.334;2023-01-25T07:30:51;3.00;99.90
10812;DHT22;5458;51.496;7.334;2023-01-25T07:33:17;3.00;99.90
10812;DHT22;5458;51.496;7.334;2023-01-25T07:35:42;3.00;99.90
10812;DHT22;5458;51.496;7.334;2023-01-25T07:38:08;2.90;99.90
10812;DHT22;5458;51.496;7.334;2023-01-25T07:40:34;2.90;99.90
10812;DHT22;5458;51.496;7.334;2023-01-25T07:43:00;2.80;99.90
10812;DHT22;5458;51.496;7.334;2023-01-25T07:45:25;2.90;99.90
10812;DHT22;5458;51.496;7.334;2023-01-25T07:47:55;2.90;99.90
10812;DHT22;5458;51.496;7.334;2023-01-25T07:50:22;2.90;99.90
10812;DHT22;5458;51.496;7.334;2023-01-25T07:52:47;3.00;99.90
10812;DHT22;5458;51.496;7.334;2023-01-25T07:55:13;3.00;99.90
10812;DHT22;5458;51.496;7.334;2023-01-25T07:57:39;3.00;99.90
10812;DHT22;5458;51.496;7.334;2023-01-25T08:00:05;3.10;99.90
10812;DHT22;5458;51.496;7.334;2023-01-25T08:02:31;3.00;99.90
10812;DHT22;5458;51.496;7.334;2023-01-25T08:04:57;3.00;99.90
10812;DHT22;5458;51.496;7.334;2023-01-25T08:07:23;3.00;99.90
10812;DHT22;5458;51.496;7.334;2023-01-25T08:09:48;3.00;99.90
10812;DHT22;5458;51.496;7.334;2023-01-25T08:12:14;3.10;99.90
10812;DHT22;5458;51.496;7.334;2023-01-25T08:14:41;3.00;99.90
10812;DHT22;5458;51.496;7.334;2023-01-25T08:17:07;3.00;99.90
10812;DHT22;5458;51.496;7.334;2023-01-25T08:19:32;3.10;99.90
10812;DHT22;5458;51.496;7.334;2023-01-25T08:21:58;3.00;99.90
10812;DHT22;5458;51.496;7.334;2023-01-25T08:24:24;3.10;99.90
10812;DHT22;5458;51.496;7.334;2023-01-25T08:26:49;3.00;99.90
10812;DHT22;5458;51.496;7.334;2023-01-25T08:29:15;3.10;99.90
10812;DHT22;5458;51.496;7.334;2023-01-25T08:31:41;3.10;99.90
10812;DHT22;5458;51.496;7.334;2023-01-25T08:34:10;3.10;99.90
10812;DHT22;5458;51.496;7.334;2023-01-25T08:36:35;3.10;99.90
10812;DHT22;5458;51.496;7.334;2023-01-25T08:39:09;3.10;99.90
10812;DHT22;5458;51.496;7.334;2023-01-25T08:41:35;3.10;99.90
10812;DHT22;5458;51.496;7.334;2023-01-25T08:44:01;3.10;99.90
10812;DHT22;5458;51.496;7.334;2023-01-25T08:46:30;3.00;99.90
10812;DHT22;5458;51.496;7.334;2023-01-25T08:48:58;2.90;99.90
10812;DHT22;5458;51.496;7.334;2023-01-25T08:51:24;2.80;99.90
10812;DHT22;5458;51.496;7.334;2023-01-25T08:53:50;2.90;99.90
10812;DHT22;5458;51.496;7.334;2023-01-25T08:56:16;2.90;99.90
10812;DHT22;5458;51.496;7.334;2023-01-25T08:58:46;2.90;99.90
10812;DHT22;5458;51.496;7.334;2023-01-25T09:01:14;3.00;99.90
10812;DHT22;5458;51.496;7.334;2023-01-25T09:03:43;3.10;99.90
10812;DHT22;5458;51.496;7.334;2023-01-25T09:06:09;3.10;99.90
10812;DHT22;5458;51.496;7.334;2023-01-25T09:08:35;3.10;99.90
10812;DHT22;5458;51.496;7.334;2023-01-25T09:11:21;3.10;99.90
10812;DHT22;5458;51.496;7.334;2023-01-25T09:13:47;3.10;99.90
10812;DHT22;5458;51.496;7.334;2023-01-25T09:16:19;3.10;99.90
10812;DHT22;5458;51.496;7.334;2023-01-25T09:18:51;3.10;99.90
10812;DHT22;5458;51.496;7.334;2023-01-25T09:21:17;3.10;99.90
10812;DHT22;5458;51.496;7.334;2023-01-25T09:23:43;3.10;99.90
10812;DHT22;5458;51.496;7.334;2023-01-25T09:26:10;3.10;99.90
10812;DHT22;5458;51.496;7.334;2023-01-25T09:28:36;3.00;99.90
10812;DHT22;5458;51.496;7.334;2023-01-25T09:31:04;3.10;99.90
10812;DHT22;5458;51.496;7.334;2023-01-25T09:33:35;3.10;99.90
10812;DHT22;5458;51.496;7.334;2023-01-25T09:36:01;3.00;99.90
10812;DHT22;5458;51.496;7.334;2023-01-25T09:38:27;2.90;99.90
10812;DHT22;5458;51.496;7.334;2023-01-25T09:54:39;3.20;99.90
10812;DHT22;5458;51.496;7.334;2023-01-25T09:57:21;3.20;99.90
10812;DHT22;5458;51.496;7.334;2023-01-25T09:59:50;3.20;99.90
10812;DHT22;5458;51.496;7.334;2023-01-25T10:05:14;3.30;99.90
10812;DHT22;5458;51.496;7.334;2023-01-25T10:07:57;3.30;99.90
10812;DHT22;5458;51.496;7.334;2023-01-25T10:10:37;3.30;99.90
10812;DHT22;5458;51.496;7.334;2023-01-25T10:13:03;3.20;99.90
10812;DHT22;5458;51.496;7.334;2023-01-25T10:18:38;3.20;99.90
10812;DHT22;5458;51.496;7.334;2023-01-25T10:21:28;3.20;99.90
10812;DHT22;5458;51.496;7.334;2023-01-25T10:24:05;3.30;99.90
10812;DHT22;5458;51.496;7.334;2023-01-25T10:26:36;3.30;99.90
10812;DHT22;5458;51.496;7.334;2023-01-25T10:29:18;3.30;99.90
10812;DHT22;5458;51.496;7.334;2023-01-25T10:31:52;3.30;99.90
10812;DHT22;5458;51.496;7.334;2023-01-25T10:34:38;3.30;99.90
10812;DHT22;5458;51.496;7.334;2023-01-25T10:37:13;3.30;99.90
10812;DHT22;5458;51.496;7.334;2023-01-25T10:39:45;3.20;99.90
10812;DHT22;5458;51.496;7.334;2023-01-25T10:42:14;3.20;99.90
10812;DHT22;5458;51.496;7.334;2023-01-25T10:44:40;3.10;99.90
10812;DHT22;5458;51.496;7.334;2023-01-25T10:52:17;3.20;99.90
10812;DHT22;5458;51.496;7.334;2023-01-25T10:54:44;3.20;99.90
10812;DHT22;5458;51.496;7.334;2023-01-25T10:57:17;3.30;99.90
10812;DHT22;5458;51.496;7.334;2023-01-25T10:59:45;3.30;99.90
10812;DHT22;5458;51.496;7.334;2023-01-25T11:07:44;3.20;99.90
10812;DHT22;5458;51.496;7.334;2023-01-25T11:10:36;3.30;99.90
10812;DHT22;5458;51.496;7.334;2023-01-25T11:15:48;3.30;99.90
10812;DHT22;5458;51.496;7.334;2023-01-25T11:20:46;3.30;99.90
10812;DHT22;5458;51.496;7.334;2023-01-25T11:23:22;3.30;99.90
10812;DHT22;5458;51.496;7.334;2023-01-25T11:25:49;3.40;99.90
10812;DHT22;5458;51.496;7.334;2023-01-25T11:28:20;3.40;99.90
10812;DHT22;5458;51.496;7.334;2023-01-25T11:30:48;3.30;99.90
10812;DHT22;5458;51.496;7.334;2023-01-25T11:33:16;3.20;99.90
10812;DHT22;5458;51.496;7.334;2023-01-25T11:41:42;3.30;99.90
10812;DHT22;5458;51.496;7.334;2023-01-25T11:44:39;3.30;99.90
10812;DHT22;5458;51.496;7.334;2023-01-25T11:50:01;3.40;99.90
10812;DHT22;5458;51.496;7.334;2023-01-25T12:12:55;3.30;99.90
10812;DHT22;5458;51.496;7.334;2023-01-25T12:15:37;3.30;99.90
10812;DHT22;5458;51.496;7.334;2023-01-25T12:21:29;3.30;99.90
10812;DHT22;5458;51.496;7.334;2023-01-25T12:27:28;3.30;99.90
10812;DHT22;5458;51.496;7.334;2023-01-25T12:29:44;3.30;99.90
10812;DHT22;5458;51.496;7.334;2023-01-25T12:32:27;3.20;99.90
10812;DHT22;5458;51.496;7.334;2023-01-25T12:37:48;3.10;99.90
10812;DHT22;5458;51.496;7.334;2023-01-25T12:43:37;3.10;99.90
10812;DHT22;5458;51.496;7.334;2023-01-25T12:46:13;3.10;99.90
10812;DHT22;5458;51.496;7.334;2023-01-25T12:48:43;3.00;99.90
10812;DHT22;5458;51.496;7.334;2023-01-25T12:51:13;3.10;99.90
10812;DHT22;5458;51.496;7.334;2023-01-25T12:53:43;3.20;99.90
10812;DHT22;5458;51.496;7.334;2023-01-25T12:59:17;3.30;99.90
10812;DHT22;5458;51.496;7.334;2023-01-25T13:01:51;3.30;99.90
10812;DHT22;5458;51.496;7.334;2023-01-25T13:06:56;3.40;99.90
10812;DHT22;5458;51.496;7.334;2023-01-25T13:09:49;3.40;99.90
10812;DHT22;5458;51.496;7.334;2023-01-25T13:12:16;3.40;99.90
10812;DHT22;5458;51.496;7.334;2023-01-25T13:14:41;3.30;99.90
10812;DHT22;5458;51.496;7.334;2023-01-25T13:17:23;3.20;99.90
10812;DHT22;5458;51.496;7.334;2023-01-25T13:19:53;3.10;99.90
10812;DHT22;5458;51.496;7.334;2023-01-25T13:27:40;3.10;99.90
10812;DHT22;5458;51.496;7.334;2023-01-25T13:35:27;3.30;99.90
10812;DHT22;5458;51.496;7.334;2023-01-25T13:38:42;3.30;99.90
10812;DHT22;5458;51.496;7.334;2023-01-25T13:40:43;3.30;99.90
10812;DHT22;5458;51.496;7.334;2023-01-25T13:45:39;3.40;99.90
10812;DHT22;5458;51.496;7.334;2023-01-25T13:48:12;3.50;99.90
10812;DHT22;5458;51.496;7.334;2023-01-25T13:50:48;3.50;99.90
10812;DHT22;5458;51.496;7.334;2023-01-25T13:55:45;3.50;99.90
10812;DHT22;5458;51.496;7.334;2023-01-25T14:01:03;3.40;99.90
10812;DHT22;5458;51.496;7.334;2023-01-25T14:06:13;3.40;99.90
10812;DHT22;5458;51.496;7.334;2023-01-25T14:08:42;3.30;99.90
10812;DHT22;5458;51.496;7.334;2023-01-25T14:11:08;3.30;99.90
10812;DHT22;5458;51.496;7.334;2023-01-25T14:13:34;3.30;99.90
10812;DHT22;5458;51.496;7.334;2023-01-25T14:16:00;3.30;99.90
10812;DHT22;5458;51.496;7.334;2023-01-25T14:18:33;3.30;99.90
10812;DHT22;5458;51.496;7.334;2023-01-25T14:21:14;3.30;99.90
10812;DHT22;5458;51.496;7.334;2023-01-25T14:23:40;3.30;99.90
10812;DHT22;5458;51.496;7.334;2023-01-25T14:26:24;3.40;99.90
10812;DHT22;5458;51.496;7.334;2023-01-25T14:28:57;3.30;99.90
10812;DHT22;5458;51.496;7.334;2023-01-25T14:31:41;3.30;99.90
10812;DHT22;5458;51.496;7.334;2023-01-25T14:34:16;3.30;99.90
10812;DHT22;5458;51.496;7.334;2023-01-25T14:36:41;3.30;99.90
10812;DHT22;5458;51.496;7.334;2023-01-25T14:39:23;3.30;99.90
10812;DHT22;5458;51.496;7.334;2023-01-25T14:41:51;3.30;99.90
10812;DHT22;5458;51.496;7.334;2023-01-25T14:44:18;3.20;99.90
10812;DHT22;5458;51.496;7.334;2023-01-25T14:46:45;3.20;99.90
10812;DHT22;5458;51.496;7.334;2023-01-25T14:49:23;3.10;99.90
10812;DHT22;5458;51.496;7.334;2023-01-25T14:54:26;3.20;99.90
10812;DHT22;5458;51.496;7.334;2023-01-25T14:57:01;3.30;99.90
10812;DHT22;5458;51.496;7.334;2023-01-25T14:59:36;3.30;99.90
10812;DHT22;5458;51.496;7.334;2023-01-25T15:05:02;3.30;99.90
10812;DHT22;5458;51.496;7.334;2023-01-25T15:07:44;3.30;99.90
10812;DHT22;5458;51.496;7.334;2023-01-25T15:15:48;3.20;99.90
10812;DHT22;5458;51.496;7.334;2023-01-25T15:18:42;3.30;99.90
10812;DHT22;5458;51.496;7.334;2023-01-25T15:21:16;3.30;99.90
10812;DHT22;5458;51.496;7.334;2023-01-25T15:23:43;3.30;99.90
10812;DHT22;5458;51.496;7.334;2023-01-25T15:26:18;3.20;99.90
10812;DHT22;5458;51.496;7.334;2023-01-25T15:28:44;3.30;99.90
10812;DHT22;5458;51.496;7.334;2023-01-25T15:31:18;3.30;99.90
10812;DHT22;5458;51.496;7.334;2023-01-25T15:33:45;3.40;99.90
10812;DHT22;5458;51.496;7.334;2023-01-25T15:36:12;3.30;99.90
10812;DHT22;5458;51.496;7.334;2023-01-25T15:38:39;3.40;99.90
10812;DHT22;5458;51.496;7.334;2023-01-25T15:41:04;3.30;99.90
10812;DHT22;5458;51.496;7.334;2023-01-25T15:43:30;3.40;99.90
10812;DHT22;5458;51.496;7.334;2023-01-25T15:45:55;3.30;99.90
10812;DHT22;5458;51.496;7.334;2023-01-25T15:48:31;3.40;99.90
10812;DHT22;5458;51.496;7.334;2023-01-25T15:50:57;3.40;99.90
10812;DHT22;5458;51.496;7.334;2023-01-25T15:53:24;3.30;99.90
10812;DHT22;5458;51.496;7.334;2023-01-25T15:56:04;3.30;99.90
10812;DHT22;5458;51.496;7.334;2023-01-25T15:58:43;3.20;99.90
10812;DHT22;5458;51.496;7.334;2023-01-25T16:01:09;3.00;99.90
10812;DHT22;5458;51.496;7.334;2023-01-25T16:03:35;2.90;99.90
10812;DHT22;5458;51.496;7.334;2023-01-25T16:06:04;3.00;99.90
10812;DHT22;5458;51.496;7.334;2023-01-25T16:08:31;3.00;99.90
10812;DHT22;5458;51.496;7.334;2023-01-25T16:10:57;3.00;99.90
10812;DHT22;5458;51.496;7.334;2023-01-25T16:13:22;3.00;99.90
10812;DHT22;5458;51.496;7.334;2023-01-25T16:15:52;3.10;99.90
10812;DHT22;5458;51.496;7.334;2023-01-25T16:18:18;3.10;99.90
10812;DHT22;5458;51.496;7.334;2023-01-25T16:20:44;3.10;99.90
10812;DHT22;5458;51.496;7.334;2023-01-25T16:23:10;3.10;99.90
10812;DHT22;5458;51.496;7.334;2023-01-25T16:25:40;3.10;99.90
10812;DHT22;5458;51.496;7.334;2023-01-25T16:28:13;3.10;99.90
10812;DHT22;5458;51.496;7.334;2023-01-25T16:30:38;3.20;99.90
10812;DHT22;5458;51.496;7.334;2023-01-25T16:33:05;3.10;99.90
10812;DHT22;5458;51.496;7.334;2023-01-25T16:35:31;3.10;99.90
10812;DHT22;5458;51.496;7.334;2023-01-25T16:37:56;3.10;99.90
10812;DHT22;5458;51.496;7.334;2023-01-25T16:40:27;3.10;99.90
10812;DHT22;5458;51.496;7.334;2023-01-25T16:42:55;3.10;99.90
10812;DHT22;5458;51.496;7.334;2023-01-25T16:45:21;3.10;99.90
10812;DHT22;5458;51.496;7.334;2023-01-25T16:47:49;3.10;99.90
10812;DHT22;5458;51.496;7.334;2023-01-25T16:50:16;3.10;99.90
10812;DHT22;5458;51.496;7.334;2023-01-25T16:52:42;3.10;99.90
10812;DHT22;5458;51.496;7.334;2023-01-25T16:55:10;3.10;99.90
10812;DHT22;5458;51.496;7.334;2023-01-25T16:57:36;3.10;99.90
10812;DHT22;5458;51.496;7.334;2023-01-25T17:00:07;3.10;99.90
10812;DHT22;5458;51.496;7.334;2023-01-25T17:02:37;3.10;99.90
10812;DHT22;5458;51.496;7.334;2023-01-25T17:05:03;3.20;99.90
10812;DHT22;5458;51.496;7.334;2023-01-25T17:07:29;3.20;99.90
10812;DHT22;5458;51.496;7.334;2023-01-25T17:09:55;3.20;99.90
10812;DHT22;5458;51.496;7.334;2023-01-25T17:12:21;3.10;99.90
10812;DHT22;5458;51.496;7.334;2023-01-25T17:14:46;3.00;99.90
10812;DHT22;5458;51.496;7.334;2023-01-25T17:17:12;2.90;99.90
10812;DHT22;5458;51.496;7.334;2023-01-25T17:19:37;2.90;99.90
10812;DHT22;5458;51.496;7.334;2023-01-25T17:22:03;2.90;99.90
10812;DHT22;5458;51.496;7.334;2023-01-25T17:24:29;2.80;99.90
10812;DHT22;5458;51.496;7.334;2023-01-25T17:26:55;2.90;99.90
10812;DHT22;5458;51.496;7.334;2023-01-25T17:29:21;2.90;99.90
10812;DHT22;5458;51.496;7.334;2023-01-25T17:31:48;2.90;99.90
10812;DHT22;5458;51.496;7.334;2023-01-25T17:34:15;3.00;99.90
10812;DHT22;5458;51.496;7.334;2023-01-25T17:36:44;3.00;99.90
10812;DHT22;5458;51.496;7.334;2023-01-25T17:39:12;3.00;99.90
10812;DHT22;5458;51.496;7.334;2023-01-25T17:41:42;2.90;99.90
10812;DHT22;5458;51.496;7.334;2023-01-25T17:44:08;3.00;99.90
10812;DHT22;5458;51.496;7.334;2023-01-25T17:46:34;3.00;99.90
10812;DHT22;5458;51.496;7.334;2023-01-25T17:49:08;3.00;99.90
10812;DHT22;5458;51.496;7.334;2023-01-25T17:51:34;3.00;99.90
10812;DHT22;5458;51.496;7.334;2023-01-25T17:54:01;3.10;99.90
10812;DHT22;5458;51.496;7.334;2023-01-25T17:56:27;3.00;99.90
10812;DHT22;5458;51.496;7.334;2023-01-25T17:58:53;3.10;99.90
10812;DHT22;5458;51.496;7.334;2023-01-25T18:01:23;3.10;99.90
10812;DHT22;5458;51.496;7.334;2023-01-25T18:03:50;3.00;99.90
10812;DHT22;5458;51.496;7.334;2023-01-25T18:06:18;2.80;99.90
10812;DHT22;5458;51.496;7.334;2023-01-25T18:08:49;2.90;99.90
10812;DHT22;5458;51.496;7.334;2023-01-25T18:11:17;2.80;99.90
10812;DHT22;5458;51.496;7.334;2023-01-25T18:13:45;2.80;99.90
10812;DHT22;5458;51.496;7.334;2023-01-25T18:16:11;2.90;99.90
10812;DHT22;5458;51.496;7.334;2023-01-25T18:18:39;2.80;99.90